createdAt,value
2018-09-04T00:04:40.390Z,21.20
2018-09-04T00:09:43.499Z,21.10
2018-09-04T00:14:46.644Z,21.00
2018-09-04T00:19:49.760Z,20.90
2018-09-04T00:24:52.856Z,20.90
2018-09-04T00:29:55.935Z,20.80
2018-09-04T00:34:59.034Z,20.80
2018-09-04T00:40:02.122Z,20.70
2018-09-04T00:45:05.229Z,20.80
2018-09-04T00:50:08.343Z,20.80
2018-09-04T00:55:11.467Z,20.70
2018-09-04T01:00:14.554Z,20.70
2018-09-04T01:05:17.659Z,20.70
2018-09-04T01:10:20.897Z,20.70
2018-09-04T01:15:23.999Z,20.60
2018-09-04T01:20:27.151Z,20.60
2018-09-04T01:25:30.308Z,20.50
2018-09-04T01:30:33.428Z,20.40
2018-09-04T01:35:36.540Z,20.40
2018-09-04T01:40:39.655Z,20.40
2018-09-04T01:45:42.819Z,20.40
2018-09-04T01:50:45.921Z,20.20
2018-09-04T01:55:49.027Z,20.10
2018-09-04T02:00:52.126Z,20.10
2018-09-04T02:05:55.234Z,20.10
2018-09-04T02:10:58.323Z,20.20
2018-09-04T02:16:01.411Z,20.20
2018-09-04T02:21:04.535Z,20.20
2018-09-04T02:26:07.864Z,20.20
2018-09-04T02:31:10.956Z,20.20
2018-09-04T02:36:14.027Z,20.10
2018-09-04T02:41:17.126Z,20.10
2018-09-04T02:46:20.257Z,20.00
2018-09-04T02:51:23.356Z,20.00
2018-09-04T02:56:26.455Z,20.10
2018-09-04T03:01:29.591Z,20.10
2018-09-04T03:06:32.707Z,20.10
2018-09-04T03:11:35.848Z,20.10
2018-09-04T03:16:38.990Z,20.10
2018-09-04T03:21:42.293Z,20.00
2018-09-04T03:26:45.400Z,20.00
2018-09-04T03:31:48.547Z,20.10
2018-09-04T03:36:51.678Z,20.10
2018-09-04T03:41:54.836Z,20.10
2018-09-04T03:46:57.963Z,20.10
2018-09-04T03:52:01.090Z,20.10
2018-09-04T03:57:04.197Z,20.10
2018-09-04T04:02:07.318Z,20.20
2018-09-04T04:07:10.463Z,20.20
2018-09-04T04:12:13.547Z,20.20
2018-09-04T04:17:16.659Z,20.20
2018-09-04T04:22:19.771Z,20.30
2018-09-04T04:27:22.878Z,20.40
2018-09-04T04:32:26.694Z,20.40
2018-09-04T04:37:29.815Z,20.30
2018-09-04T04:42:32.926Z,20.30
2018-09-04T04:47:53.840Z,20.30
2018-09-04T04:52:56.828Z,20.30
2018-09-04T04:58:00.251Z,20.40
2018-09-04T05:03:03.360Z,20.30
2018-09-04T05:08:06.479Z,20.40
2018-09-04T05:13:09.784Z,20.30
2018-09-04T05:18:12.865Z,20.40
2018-09-04T05:23:15.955Z,20.40
2018-09-04T05:28:19.060Z,20.30
2018-09-04T05:33:52.931Z,20.30
2018-09-04T05:38:56.031Z,20.30
2018-09-04T05:44:00.382Z,20.30
2018-09-04T05:49:03.515Z,20.30
2018-09-04T05:54:06.600Z,20.30
2018-09-04T05:59:09.725Z,20.40
2018-09-04T06:04:12.886Z,20.30
2018-09-04T06:09:16.098Z,20.40
2018-09-04T06:19:31.512Z,20.50
2018-09-04T06:24:34.608Z,20.50
2018-09-04T06:29:37.760Z,20.60
2018-09-04T06:34:40.831Z,20.60
2018-09-04T06:39:43.933Z,20.70
2018-09-04T06:44:47.043Z,20.60
2018-09-04T06:49:50.169Z,20.50
2018-09-04T06:54:53.447Z,20.50
2018-09-04T06:59:56.575Z,20.60
2018-09-04T07:04:59.673Z,20.50
2018-09-04T07:10:02.784Z,20.50
2018-09-04T07:15:06.261Z,20.60
2018-09-04T07:20:09.330Z,20.70
2018-09-04T07:25:12.443Z,20.60
2018-09-04T07:30:15.551Z,20.50
2018-09-04T07:35:18.690Z,20.60
2018-09-04T07:40:21.786Z,20.70
2018-09-04T07:45:24.947Z,20.70
2018-09-04T07:50:28.056Z,20.60
2018-09-04T07:55:31.168Z,20.80
2018-09-04T08:00:34.306Z,20.70
2018-09-04T08:05:37.470Z,20.70
2018-09-04T08:10:40.593Z,20.80
2018-09-04T08:15:43.721Z,20.90
2018-09-04T08:20:47.016Z,21.00
2018-09-04T08:25:50.001Z,20.90
2018-09-04T08:30:53.120Z,21.00
2018-09-04T08:35:56.219Z,21.10
2018-09-04T08:40:59.384Z,21.20
2018-09-04T08:46:02.544Z,21.20
2018-09-04T08:51:05.811Z,21.30
2018-09-04T08:56:08.927Z,21.50
2018-09-04T09:01:12.191Z,21.60
2018-09-04T09:06:15.327Z,21.60
2018-09-04T09:11:18.449Z,21.60
2018-09-04T09:16:21.590Z,21.80
2018-09-04T09:21:24.736Z,21.90
2018-09-04T09:31:37.377Z,22.00
2018-09-04T09:36:40.625Z,22.00
2018-09-04T09:41:43.667Z,22.20
2018-09-04T09:46:46.771Z,22.30
2018-09-04T09:51:49.900Z,22.30
2018-09-04T09:56:53.015Z,22.50
2018-09-04T10:02:01.713Z,22.60
2018-09-04T10:07:04.843Z,22.70
2018-09-04T10:12:08.062Z,22.90
2018-09-04T10:17:11.219Z,23.00
2018-09-04T10:22:14.398Z,23.10
2018-09-04T10:27:17.564Z,23.20
2018-09-04T10:32:20.680Z,23.20
2018-09-04T10:37:23.801Z,23.30
2018-09-04T10:42:31.000Z,23.30
2018-09-04T10:47:34.127Z,23.40
2018-09-04T10:52:37.235Z,23.60
2018-09-04T10:57:40.382Z,23.70
2018-09-04T11:02:43.476Z,23.70
2018-09-04T11:07:46.578Z,23.80
2018-09-04T11:12:49.916Z,24.00
2018-09-04T11:17:53.011Z,24.10
2018-09-04T11:22:56.126Z,24.10
2018-09-04T11:27:59.249Z,24.30
2018-09-04T11:33:02.351Z,24.50
2018-09-04T11:38:05.630Z,24.60
2018-09-04T11:43:09.011Z,24.70
2018-09-04T11:48:15.573Z,24.90
2018-09-04T11:53:18.688Z,25.10
2018-09-04T11:58:21.772Z,25.30
2018-09-04T12:03:25.013Z,25.50
2018-09-04T12:08:28.122Z,25.60
2018-09-04T12:13:32.073Z,25.80
2018-09-04T12:18:35.170Z,25.70
2018-09-04T12:23:38.376Z,25.80
2018-09-04T12:28:41.468Z,25.90
2018-09-04T12:33:44.566Z,26.20
2018-09-04T12:38:47.650Z,26.30
2018-09-04T12:43:50.735Z,26.60
2018-09-04T12:48:53.852Z,26.90
2018-09-04T12:53:57.007Z,27.10
2018-09-04T12:59:00.128Z,27.30
2018-09-04T13:04:03.274Z,27.40
2018-09-04T13:09:06.930Z,27.60
2018-09-04T13:14:09.975Z,27.60
2018-09-04T13:19:13.058Z,27.70
2018-09-04T13:24:16.188Z,27.60
2018-09-04T13:29:19.276Z,27.60
2018-09-04T13:34:23.053Z,27.70
2018-09-04T13:39:26.099Z,27.70
2018-09-04T13:44:29.203Z,27.60
2018-09-04T13:49:32.519Z,27.40
2018-09-04T13:54:35.468Z,27.30
2018-09-04T13:59:38.628Z,27.40
2018-09-04T14:04:41.939Z,27.40
2018-09-04T14:09:45.042Z,27.40
2018-09-04T14:14:48.208Z,27.30
2018-09-04T14:19:51.314Z,27.30
2018-09-04T14:24:54.432Z,27.10
2018-09-04T14:30:15.537Z,27.10
2018-09-04T14:35:00.730Z,27.10
2018-09-04T14:40:03.863Z,27.00
2018-09-04T14:45:06.944Z,26.90
2018-09-04T14:50:10.080Z,26.80
2018-09-04T14:55:13.183Z,26.80
2018-09-04T15:00:16.291Z,26.80
2018-09-04T15:05:19.414Z,26.80
2018-09-04T15:10:22.520Z,26.70
2018-09-04T15:15:25.635Z,26.80
2018-09-04T15:20:28.751Z,26.80
2018-09-04T15:25:31.937Z,26.80
2018-09-04T15:30:34.970Z,26.80
2018-09-04T15:35:38.108Z,26.60
2018-09-04T15:40:41.215Z,26.40
2018-09-04T15:45:44.328Z,26.40
2018-09-04T15:50:47.427Z,26.30
2018-09-04T15:55:50.555Z,26.20
2018-09-04T16:00:53.655Z,26.10
2018-09-04T16:05:56.740Z,26.10
2018-09-04T16:10:59.827Z,26.00
2018-09-04T16:16:03.015Z,25.80
2018-09-04T16:21:06.245Z,25.80
2018-09-04T16:26:09.347Z,25.80
2018-09-04T16:31:12.432Z,25.60
2018-09-04T16:36:15.588Z,25.60
2018-09-04T16:41:18.924Z,25.60
2018-09-04T16:46:22.015Z,25.60
2018-09-04T16:51:25.122Z,25.40
2018-09-04T16:56:28.222Z,25.30
2018-09-04T17:01:31.351Z,25.40
2018-09-04T17:06:34.435Z,25.30
2018-09-04T17:11:38.015Z,25.20
2018-09-04T17:16:41.131Z,25.00
2018-09-04T17:21:44.251Z,24.90
2018-09-04T17:26:47.379Z,24.90
2018-09-04T17:31:50.502Z,24.80
2018-09-04T17:36:53.592Z,24.70
2018-09-04T17:41:56.712Z,24.60
2018-09-04T17:47:00.055Z,24.50
2018-09-04T17:52:03.163Z,24.40
2018-09-04T17:57:06.271Z,24.30
2018-09-04T18:02:09.358Z,24.20
2018-09-04T18:07:12.471Z,24.10
2018-09-04T18:12:16.572Z,23.90
2018-09-04T18:17:24.435Z,23.90
2018-09-04T18:22:27.600Z,23.80
2018-09-04T18:27:33.111Z,23.70
2018-09-04T18:32:36.456Z,23.60
2018-09-04T18:37:39.618Z,23.50
2018-09-04T18:42:42.756Z,23.30
2018-09-04T18:47:45.874Z,23.20
2018-09-04T18:52:48.991Z,23.10
2018-09-04T18:57:52.083Z,22.90
2018-09-04T19:02:55.205Z,22.80
2018-09-04T19:07:58.328Z,22.60
2018-09-04T19:13:01.853Z,22.60
2018-09-04T19:18:04.983Z,22.60
2018-09-04T19:23:08.110Z,22.50
2018-09-04T19:28:11.211Z,22.40
2018-09-04T19:33:14.359Z,22.30
2018-09-04T19:38:17.431Z,22.30
2018-09-04T19:43:20.581Z,22.10
2018-09-04T19:48:23.672Z,22.00
2018-09-04T19:53:26.781Z,21.80
2018-09-04T19:58:29.876Z,21.80
2018-09-04T20:03:33.016Z,21.70
2018-09-04T20:08:36.132Z,21.60
2018-09-04T20:13:39.251Z,21.50
2018-09-04T20:18:42.344Z,21.40
2018-09-04T20:23:45.486Z,21.30
2018-09-04T20:28:48.692Z,21.10
2018-09-04T20:33:51.910Z,21.00
2018-09-04T20:38:55.020Z,20.90
2018-09-04T20:43:58.109Z,20.80
2018-09-04T20:49:01.227Z,20.80
2018-09-04T20:54:04.395Z,20.70
2018-09-04T20:59:19.125Z,20.60
2018-09-04T21:04:33.772Z,20.50
2018-09-04T21:09:42.355Z,20.40
2018-09-04T21:14:45.503Z,20.30
2018-09-04T21:19:48.638Z,20.20
2018-09-04T21:24:51.739Z,20.20
2018-09-04T21:29:54.896Z,20.30
2018-09-04T21:34:58.026Z,20.30
2018-09-04T21:40:01.126Z,20.30
2018-09-04T21:45:04.547Z,20.30
2018-09-04T21:50:07.826Z,20.40
2018-09-04T21:55:10.904Z,20.40
2018-09-04T22:00:18.244Z,20.40
2018-09-04T22:05:21.511Z,20.30
2018-09-04T22:10:25.255Z,20.20
2018-09-04T22:15:28.399Z,20.10
2018-09-04T22:20:31.498Z,20.10
2018-09-04T22:25:34.632Z,20.10
2018-09-04T22:30:37.839Z,20.10
2018-09-04T22:35:40.950Z,20.00
2018-09-04T22:40:44.063Z,20.00
2018-09-04T22:45:47.190Z,19.90
2018-09-04T22:50:55.902Z,19.90
2018-09-04T22:55:59.008Z,19.90
2018-09-04T23:01:02.103Z,19.90
2018-09-04T23:06:05.423Z,19.80
2018-09-04T23:11:08.694Z,19.80
2018-09-04T23:16:11.778Z,19.70
2018-09-04T23:21:14.889Z,19.60
2018-09-04T23:26:18.003Z,19.60
2018-09-04T23:31:21.102Z,19.60
2018-09-04T23:36:24.187Z,19.60
2018-09-04T23:41:27.302Z,19.60
2018-09-04T23:46:31.671Z,19.60
2018-09-04T23:51:34.801Z,19.50
2018-09-04T23:56:37.909Z,19.40
